Hollywood, Maryland
Current Conditions -  °F | °C
As of 2:48 AM on Wednesday 26 Nov 2014 (Local Time) from K2W6 Reporting Station
Overcast Overcast  
Wind Chill: 45°   Ceiling: 7500
Heat Index: 45°   Visibility: 10mi
Dew Point: 41°   Wind: 0mph
Humidity: 87%   Direction: NA
Pressure: 30.09"   Gusts: NA
Location:  38.35°N, 76.57°W
Report Text: K2W6 260748Z AUTO 00000KT 10SM BKN075 OVC090 07/05 A3009 RMK AO1
Loading
Personal Weather Stations






























Interactive Weather Map New forecast layout! Learn more

10-Day Weather Forecast

Advertisements
Track Severe Weather on mobile